sensor_id;sensor_type;location;lat;lon;timestamp;temperature;humidity
8820;DHT22;4446;50.876;4.736;2023-05-14T00:00:01;13.40;99.90
8820;DHT22;4446;50.876;4.736;2023-05-14T00:02:28;13.30;99.90
8820;DHT22;4446;50.876;4.736;2023-05-14T00:04:55;13.30;99.90
8820;DHT22;4446;50.876;4.736;2023-05-14T00:07:24;13.20;99.90
8820;DHT22;4446;50.876;4.736;2023-05-14T00:09:55;13.10;99.90
8820;DHT22;4446;50.876;4.736;2023-05-14T00:12:22;13.30;99.90
8820;DHT22;4446;50.876;4.736;2023-05-14T00:14:49;13.20;99.90
8820;DHT22;4446;50.876;4.736;2023-05-14T00:17:16;13.20;99.90
8820;DHT22;4446;50.876;4.736;2023-05-14T00:19:43;13.10;99.90
8820;DHT22;4446;50.876;4.736;2023-05-14T00:22:10;13.00;99.90
8820;DHT22;4446;50.876;4.736;2023-05-14T00:24:38;13.00;99.90
8820;DHT22;4446;50.876;4.736;2023-05-14T00:27:05;13.00;99.90
8820;DHT22;4446;50.876;4.736;2023-05-14T00:29:33;13.00;99.90
8820;DHT22;4446;50.876;4.736;2023-05-14T00:32:00;13.00;99.90
8820;DHT22;4446;50.876;4.736;2023-05-14T00:34:27;12.90;99.90
8820;DHT22;4446;50.876;4.736;2023-05-14T00:36:54;12.90;99.90
8820;DHT22;4446;50.876;4.736;2023-05-14T00:39:21;12.80;99.90
8820;DHT22;4446;50.876;4.736;2023-05-14T00:41:49;12.90;99.90
8820;DHT22;4446;50.876;4.736;2023-05-14T00:44:16;12.90;99.90
8820;DHT22;4446;50.876;4.736;2023-05-14T00:46:43;12.90;99.90
8820;DHT22;4446;50.876;4.736;2023-05-14T00:49:10;12.90;99.90
8820;DHT22;4446;50.876;4.736;2023-05-14T00:51:38;12.80;99.90
8820;DHT22;4446;50.876;4.736;2023-05-14T00:54:06;12.90;99.90
8820;DHT22;4446;50.876;4.736;2023-05-14T00:56:34;13.00;99.90
8820;DHT22;4446;50.876;4.736;2023-05-14T00:59:02;12.80;99.90
8820;DHT22;4446;50.876;4.736;2023-05-14T01:01:30;12.80;99.90
8820;DHT22;4446;50.876;4.736;2023-05-14T01:03:57;12.80;99.90
8820;DHT22;4446;50.876;4.736;2023-05-14T01:06:29;12.60;99.90
8820;DHT22;4446;50.876;4.736;2023-05-14T01:09:04;12.60;99.90
8820;DHT22;4446;50.876;4.736;2023-05-14T01:11:44;12.60;99.90
8820;DHT22;4446;50.876;4.736;2023-05-14T01:14:19;12.60;99.90
8820;DHT22;4446;50.876;4.736;2023-05-14T01:16:47;12.60;99.90
8820;DHT22;4446;50.876;4.736;2023-05-14T01:19:21;12.60;99.90
8820;DHT22;4446;50.876;4.736;2023-05-14T01:21:53;12.60;99.90
8820;DHT22;4446;50.876;4.736;2023-05-14T01:24:20;12.40;99.90
8820;DHT22;4446;50.876;4.736;2023-05-14T01:26:47;12.30;99.90
8820;DHT22;4446;50.876;4.736;2023-05-14T01:29:20;12.20;99.90
8820;DHT22;4446;50.876;4.736;2023-05-14T01:31:49;12.20;99.90
8820;DHT22;4446;50.876;4.736;2023-05-14T01:34:19;12.00;99.90
8820;DHT22;4446;50.876;4.736;2023-05-14T01:36:47;12.00;99.90
8820;DHT22;4446;50.876;4.736;2023-05-14T01:39:17;11.90;99.90
8820;DHT22;4446;50.876;4.736;2023-05-14T01:41:45;11.80;99.90
8820;DHT22;4446;50.876;4.736;2023-05-14T01:44:12;11.80;99.90
8820;DHT22;4446;50.876;4.736;2023-05-14T01:46:39;11.70;99.90
8820;DHT22;4446;50.876;4.736;2023-05-14T01:49:06;11.70;99.90
8820;DHT22;4446;50.876;4.736;2023-05-14T01:51:33;11.60;99.90
8820;DHT22;4446;50.876;4.736;2023-05-14T01:54:00;11.50;99.90
8820;DHT22;4446;50.876;4.736;2023-05-14T01:56:29;11.50;99.90
8820;DHT22;4446;50.876;4.736;2023-05-14T01:58:56;11.50;99.90
8820;DHT22;4446;50.876;4.736;2023-05-14T02:01:23;11.50;99.90
8820;DHT22;4446;50.876;4.736;2023-05-14T02:03:50;11.50;99.90
8820;DHT22;4446;50.876;4.736;2023-05-14T02:06:17;11.50;99.90
8820;DHT22;4446;50.876;4.736;2023-05-14T02:08:44;11.50;99.90
8820;DHT22;4446;50.876;4.736;2023-05-14T02:11:11;11.50;99.90
8820;DHT22;4446;50.876;4.736;2023-05-14T02:13:39;11.50;99.90
8820;DHT22;4446;50.876;4.736;2023-05-14T02:16:07;11.50;99.90
8820;DHT22;4446;50.876;4.736;2023-05-14T02:18:34;11.50;99.90
8820;DHT22;4446;50.876;4.736;2023-05-14T02:21:01;11.50;99.90
8820;DHT22;4446;50.876;4.736;2023-05-14T02:23:28;11.50;99.90
8820;DHT22;4446;50.876;4.736;2023-05-14T02:25:55;11.50;99.90
8820;DHT22;4446;50.876;4.736;2023-05-14T02:28:22;11.50;99.90
8820;DHT22;4446;50.876;4.736;2023-05-14T02:30:50;11.50;99.90
8820;DHT22;4446;50.876;4.736;2023-05-14T02:33:17;11.60;99.90
8820;DHT22;4446;50.876;4.736;2023-05-14T02:35:44;11.50;99.90
8820;DHT22;4446;50.876;4.736;2023-05-14T02:38:11;11.60;99.90
8820;DHT22;4446;50.876;4.736;2023-05-14T02:40:38;11.60;99.90
8820;DHT22;4446;50.876;4.736;2023-05-14T02:43:05;11.70;99.90
8820;DHT22;4446;50.876;4.736;2023-05-14T02:45:32;11.60;99.90
8820;DHT22;4446;50.876;4.736;2023-05-14T02:48:00;11.70;99.90
8820;DHT22;4446;50.876;4.736;2023-05-14T02:50:27;11.70;99.90
8820;DHT22;4446;50.876;4.736;2023-05-14T02:52:54;11.70;99.90
8820;DHT22;4446;50.876;4.736;2023-05-14T02:55:22;11.70;99.90
8820;DHT22;4446;50.876;4.736;2023-05-14T02:57:51;11.80;99.90
8820;DHT22;4446;50.876;4.736;2023-05-14T03:00:18;11.80;99.90
8820;DHT22;4446;50.876;4.736;2023-05-14T03:02:45;11.90;99.90
8820;DHT22;4446;50.876;4.736;2023-05-14T03:05:13;11.80;99.90
8820;DHT22;4446;50.876;4.736;2023-05-14T03:07:40;11.90;99.90
8820;DHT22;4446;50.876;4.736;2023-05-14T03:10:08;11.90;99.90
8820;DHT22;4446;50.876;4.736;2023-05-14T03:12:35;11.80;99.90
8820;DHT22;4446;50.876;4.736;2023-05-14T03:15:02;11.80;99.90
8820;DHT22;4446;50.876;4.736;2023-05-14T03:17:29;11.80;99.90
8820;DHT22;4446;50.876;4.736;2023-05-14T03:19:57;11.90;99.90
8820;DHT22;4446;50.876;4.736;2023-05-14T03:22:25;11.80;99.90
8820;DHT22;4446;50.876;4.736;2023-05-14T03:24:53;11.90;99.90
8820;DHT22;4446;50.876;4.736;2023-05-14T03:27:19;11.90;99.90
8820;DHT22;4446;50.876;4.736;2023-05-14T03:29:46;12.00;99.90
8820;DHT22;4446;50.876;4.736;2023-05-14T03:32:13;12.00;99.90
8820;DHT22;4446;50.876;4.736;2023-05-14T03:34:41;11.90;99.90
8820;DHT22;4446;50.876;4.736;2023-05-14T03:37:09;11.90;99.90
8820;DHT22;4446;50.876;4.736;2023-05-14T03:39:38;11.80;99.90
8820;DHT22;4446;50.876;4.736;2023-05-14T03:42:05;11.90;99.90
8820;DHT22;4446;50.876;4.736;2023-05-14T03:44:32;11.90;99.90
8820;DHT22;4446;50.876;4.736;2023-05-14T03:46:59;11.90;99.90
8820;DHT22;4446;50.876;4.736;2023-05-14T03:49:26;11.90;99.90
8820;DHT22;4446;50.876;4.736;2023-05-14T03:51:53;11.90;99.90
8820;DHT22;4446;50.876;4.736;2023-05-14T03:54:20;11.90;99.90
8820;DHT22;4446;50.876;4.736;2023-05-14T03:56:48;11.90;99.90
8820;DHT22;4446;50.876;4.736;2023-05-14T03:59:15;11.80;99.90
8820;DHT22;4446;50.876;4.736;2023-05-14T04:01:43;11.80;99.90
8820;DHT22;4446;50.876;4.736;2023-05-14T04:04:10;11.80;99.90
8820;DHT22;4446;50.876;4.736;2023-05-14T04:06:37;11.70;99.90
8820;DHT22;4446;50.876;4.736;2023-05-14T04:09:04;11.80;99.90
8820;DHT22;4446;50.876;4.736;2023-05-14T04:11:31;11.80;99.90
8820;DHT22;4446;50.876;4.736;2023-05-14T04:13:59;11.80;99.90
8820;DHT22;4446;50.876;4.736;2023-05-14T04:16:26;11.70;99.90
8820;DHT22;4446;50.876;4.736;2023-05-14T04:18:53;11.70;99.90
8820;DHT22;4446;50.876;4.736;2023-05-14T04:21:20;11.70;99.90
8820;DHT22;4446;50.876;4.736;2023-05-14T04:23:47;11.80;99.90
8820;DHT22;4446;50.876;4.736;2023-05-14T04:26:15;11.80;99.90
8820;DHT22;4446;50.876;4.736;2023-05-14T04:28:42;11.80;99.90
8820;DHT22;4446;50.876;4.736;2023-05-14T04:31:11;11.90;99.90
8820;DHT22;4446;50.876;4.736;2023-05-14T04:33:38;12.00;99.90
8820;DHT22;4446;50.876;4.736;2023-05-14T04:36:06;12.00;99.90
8820;DHT22;4446;50.876;4.736;2023-05-14T04:38:33;12.00;99.90
8820;DHT22;4446;50.876;4.736;2023-05-14T04:41:00;12.00;99.90
8820;DHT22;4446;50.876;4.736;2023-05-14T04:43:27;11.90;99.90
8820;DHT22;4446;50.876;4.736;2023-05-14T04:45:54;11.90;99.90
8820;DHT22;4446;50.876;4.736;2023-05-14T04:48:22;12.00;99.90
8820;DHT22;4446;50.876;4.736;2023-05-14T04:50:49;12.00;99.90
8820;DHT22;4446;50.876;4.736;2023-05-14T04:53:16;12.10;99.90
8820;DHT22;4446;50.876;4.736;2023-05-14T04:55:43;12.10;99.90
8820;DHT22;4446;50.876;4.736;2023-05-14T04:58:10;12.00;99.90
8820;DHT22;4446;50.876;4.736;2023-05-14T05:00:37;12.00;99.90
8820;DHT22;4446;50.876;4.736;2023-05-14T05:03:04;12.00;99.90
8820;DHT22;4446;50.876;4.736;2023-05-14T05:05:33;12.10;99.90
8820;DHT22;4446;50.876;4.736;2023-05-14T05:08:00;12.10;99.90
8820;DHT22;4446;50.876;4.736;2023-05-14T05:10:27;12.00;99.90
8820;DHT22;4446;50.876;4.736;2023-05-14T05:12:54;12.00;99.90
8820;DHT22;4446;50.876;4.736;2023-05-14T05:15:21;12.00;99.90
8820;DHT22;4446;50.876;4.736;2023-05-14T05:17:48;12.10;99.90
8820;DHT22;4446;50.876;4.736;2023-05-14T05:20:15;12.10;99.90
8820;DHT22;4446;50.876;4.736;2023-05-14T05:22:43;12.20;99.90
8820;DHT22;4446;50.876;4.736;2023-05-14T05:25:10;12.30;99.90
8820;DHT22;4446;50.876;4.736;2023-05-14T05:27:37;12.30;99.90
8820;DHT22;4446;50.876;4.736;2023-05-14T05:30:06;12.30;99.90
8820;DHT22;4446;50.876;4.736;2023-05-14T05:32:33;12.30;99.90
8820;DHT22;4446;50.876;4.736;2023-05-14T05:35:00;12.30;99.90
8820;DHT22;4446;50.876;4.736;2023-05-14T05:37:28;12.50;99.90
8820;DHT22;4446;50.876;4.736;2023-05-14T05:39:57;12.50;99.90
8820;DHT22;4446;50.876;4.736;2023-05-14T05:42:24;12.60;99.90
8820;DHT22;4446;50.876;4.736;2023-05-14T05:44:51;12.80;99.90
8820;DHT22;4446;50.876;4.736;2023-05-14T05:47:18;12.70;99.90
8820;DHT22;4446;50.876;4.736;2023-05-14T05:49:45;12.80;99.90
8820;DHT22;4446;50.876;4.736;2023-05-14T05:52:12;12.80;99.90
8820;DHT22;4446;50.876;4.736;2023-05-14T05:54:39;12.90;99.90
8820;DHT22;4446;50.876;4.736;2023-05-14T05:57:07;13.10;99.90
8820;DHT22;4446;50.876;4.736;2023-05-14T05:59:34;13.20;99.90
8820;DHT22;4446;50.876;4.736;2023-05-14T06:02:01;13.30;99.90
8820;DHT22;4446;50.876;4.736;2023-05-14T06:04:29;13.30;99.90
8820;DHT22;4446;50.876;4.736;2023-05-14T06:06:56;13.30;99.90
8820;DHT22;4446;50.876;4.736;2023-05-14T06:09:23;13.50;99.90
8820;DHT22;4446;50.876;4.736;2023-05-14T06:11:50;13.50;99.90
8820;DHT22;4446;50.876;4.736;2023-05-14T06:14:18;13.50;99.90
8820;DHT22;4446;50.876;4.736;2023-05-14T06:16:45;13.50;99.90
8820;DHT22;4446;50.876;4.736;2023-05-14T06:19:12;13.40;99.90
8820;DHT22;4446;50.876;4.736;2023-05-14T06:21:39;13.40;99.90
8820;DHT22;4446;50.876;4.736;2023-05-14T06:24:07;13.40;99.90
8820;DHT22;4446;50.876;4.736;2023-05-14T06:26:34;13.30;99.90
8820;DHT22;4446;50.876;4.736;2023-05-14T06:29:01;13.30;99.90
8820;DHT22;4446;50.876;4.736;2023-05-14T06:31:29;13.40;99.90
8820;DHT22;4446;50.876;4.736;2023-05-14T06:33:56;13.50;99.90
8820;DHT22;4446;50.876;4.736;2023-05-14T06:36:23;13.60;99.90
8820;DHT22;4446;50.876;4.736;2023-05-14T06:38:50;13.70;99.90
8820;DHT22;4446;50.876;4.736;2023-05-14T06:41:17;13.70;99.90
8820;DHT22;4446;50.876;4.736;2023-05-14T06:43:44;13.90;99.90
8820;DHT22;4446;50.876;4.736;2023-05-14T06:46:11;14.00;99.90
8820;DHT22;4446;50.876;4.736;2023-05-14T06:48:39;14.00;99.90
8820;DHT22;4446;50.876;4.736;2023-05-14T06:51:06;14.00;99.90
8820;DHT22;4446;50.876;4.736;2023-05-14T06:53:33;14.00;99.90
8820;DHT22;4446;50.876;4.736;2023-05-14T06:56:00;14.00;99.90
8820;DHT22;4446;50.876;4.736;2023-05-14T06:58:27;13.90;99.90
8820;DHT22;4446;50.876;4.736;2023-05-14T07:00:54;13.80;99.90
8820;DHT22;4446;50.876;4.736;2023-05-14T07:03:21;13.80;99.90
8820;DHT22;4446;50.876;4.736;2023-05-14T07:05:50;13.80;99.90
8820;DHT22;4446;50.876;4.736;2023-05-14T07:08:22;13.70;99.90
8820;DHT22;4446;50.876;4.736;2023-05-14T07:10:49;13.80;99.90
8820;DHT22;4446;50.876;4.736;2023-05-14T07:13:16;13.90;99.90
8820;DHT22;4446;50.876;4.736;2023-05-14T07:15:43;14.00;99.90
8820;DHT22;4446;50.876;4.736;2023-05-14T07:18:10;14.20;99.90
8820;DHT22;4446;50.876;4.736;2023-05-14T07:20:37;14.30;99.90
8820;DHT22;4446;50.876;4.736;2023-05-14T07:23:05;14.40;99.90
8820;DHT22;4446;50.876;4.736;2023-05-14T07:25:32;14.50;99.90
8820;DHT22;4446;50.876;4.736;2023-05-14T07:27:59;14.60;99.90
8820;DHT22;4446;50.876;4.736;2023-05-14T07:30:26;14.70;99.90
8820;DHT22;4446;50.876;4.736;2023-05-14T07:32:53;14.70;99.90
8820;DHT22;4446;50.876;4.736;2023-05-14T07:35:21;14.90;99.90
8820;DHT22;4446;50.876;4.736;2023-05-14T07:37:48;15.10;99.90
8820;DHT22;4446;50.876;4.736;2023-05-14T07:40:17;15.40;99.90
8820;DHT22;4446;50.876;4.736;2023-05-14T07:42:44;15.50;99.90
8820;DHT22;4446;50.876;4.736;2023-05-14T07:45:11;15.50;99.90
8820;DHT22;4446;50.876;4.736;2023-05-14T07:47:38;15.60;99.90
8820;DHT22;4446;50.876;4.736;2023-05-14T07:50:07;15.60;99.90
8820;DHT22;4446;50.876;4.736;2023-05-14T07:52:34;15.70;99.90
8820;DHT22;4446;50.876;4.736;2023-05-14T07:55:02;15.70;99.90
8820;DHT22;4446;50.876;4.736;2023-05-14T07:57:30;15.60;99.90
8820;DHT22;4446;50.876;4.736;2023-05-14T07:59:58;15.50;99.90
8820;DHT22;4446;50.876;4.736;2023-05-14T08:02:25;15.40;99.90
8820;DHT22;4446;50.876;4.736;2023-05-14T08:04:53;15.30;99.90
8820;DHT22;4446;50.876;4.736;2023-05-14T08:07:20;15.30;99.90
8820;DHT22;4446;50.876;4.736;2023-05-14T08:09:47;15.30;99.90
8820;DHT22;4446;50.876;4.736;2023-05-14T08:12:14;15.30;99.90
8820;DHT22;4446;50.876;4.736;2023-05-14T08:14:43;15.30;99.90
8820;DHT22;4446;50.876;4.736;2023-05-14T08:17:13;15.40;99.90
8820;DHT22;4446;50.876;4.736;2023-05-14T08:19:40;15.50;99.90
8820;DHT22;4446;50.876;4.736;2023-05-14T08:22:07;15.80;99.90
8820;DHT22;4446;50.876;4.736;2023-05-14T08:24:34;15.90;99.90
8820;DHT22;4446;50.876;4.736;2023-05-14T08:27:01;15.80;99.90
8820;DHT22;4446;50.876;4.736;2023-05-14T08:29:28;15.90;99.90
8820;DHT22;4446;50.876;4.736;2023-05-14T08:31:57;16.20;99.90
8820;DHT22;4446;50.876;4.736;2023-05-14T08:34:24;16.50;99.90
8820;DHT22;4446;50.876;4.736;2023-05-14T08:36:52;16.60;99.90
8820;DHT22;4446;50.876;4.736;2023-05-14T08:39:19;16.80;99.90
8820;DHT22;4446;50.876;4.736;2023-05-14T08:41:47;16.80;99.90
8820;DHT22;4446;50.876;4.736;2023-05-14T08:44:18;16.90;99.90
8820;DHT22;4446;50.876;4.736;2023-05-14T08:46:46;16.90;99.90
8820;DHT22;4446;50.876;4.736;2023-05-14T08:49:24;16.90;99.90
8820;DHT22;4446;50.876;4.736;2023-05-14T08:51:53;17.00;99.90
8820;DHT22;4446;50.876;4.736;2023-05-14T08:54:20;17.10;99.90
8820;DHT22;4446;50.876;4.736;2023-05-14T08:56:50;17.10;99.90
8820;DHT22;4446;50.876;4.736;2023-05-14T08:59:17;17.20;99.90
8820;DHT22;4446;50.876;4.736;2023-05-14T09:01:46;17.40;99.90
8820;DHT22;4446;50.876;4.736;2023-05-14T09:04:14;17.50;99.90
8820;DHT22;4446;50.876;4.736;2023-05-14T09:06:44;17.50;99.90
8820;DHT22;4446;50.876;4.736;2023-05-14T09:09:14;17.30;99.90
8820;DHT22;4446;50.876;4.736;2023-05-14T09:11:42;17.20;99.90
8820;DHT22;4446;50.876;4.736;2023-05-14T09:14:09;17.30;99.90
8820;DHT22;4446;50.876;4.736;2023-05-14T09:16:37;17.30;99.90
8820;DHT22;4446;50.876;4.736;2023-05-14T09:19:07;17.00;99.90
8820;DHT22;4446;50.876;4.736;2023-05-14T09:21:34;17.00;99.90
8820;DHT22;4446;50.876;4.736;2023-05-14T09:24:04;17.10;99.90
8820;DHT22;4446;50.876;4.736;2023-05-14T09:26:32;17.30;99.90
8820;DHT22;4446;50.876;4.736;2023-05-14T09:29:01;17.40;99.90
8820;DHT22;4446;50.876;4.736;2023-05-14T09:31:29;17.40;99.90
8820;DHT22;4446;50.876;4.736;2023-05-14T09:33:57;17.40;99.90
8820;DHT22;4446;50.876;4.736;2023-05-14T09:36:24;17.40;99.90
8820;DHT22;4446;50.876;4.736;2023-05-14T09:38:52;17.50;99.90
8820;DHT22;4446;50.876;4.736;2023-05-14T09:41:23;17.50;99.90
8820;DHT22;4446;50.876;4.736;2023-05-14T09:43:50;17.60;99.90
8820;DHT22;4446;50.876;4.736;2023-05-14T09:46:17;17.60;99.90
8820;DHT22;4446;50.876;4.736;2023-05-14T09:48:46;17.30;99.90
8820;DHT22;4446;50.876;4.736;2023-05-14T09:51:13;17.30;99.90
8820;DHT22;4446;50.876;4.736;2023-05-14T09:53:43;17.50;99.90
8820;DHT22;4446;50.876;4.736;2023-05-14T09:56:10;17.60;99.90
8820;DHT22;4446;50.876;4.736;2023-05-14T09:58:38;17.70;99.90
8820;DHT22;4446;50.876;4.736;2023-05-14T10:01:05;17.80;99.90
8820;DHT22;4446;50.876;4.736;2023-05-14T10:03:33;17.70;99.90
8820;DHT22;4446;50.876;4.736;2023-05-14T10:06:03;17.80;99.90
8820;DHT22;4446;50.876;4.736;2023-05-14T10:08:33;17.80;99.90
8820;DHT22;4446;50.876;4.736;2023-05-14T10:11:03;18.00;99.90
8820;DHT22;4446;50.876;4.736;2023-05-14T10:13:38;17.90;99.90
8820;DHT22;4446;50.876;4.736;2023-05-14T10:16:07;18.00;99.90
8820;DHT22;4446;50.876;4.736;2023-05-14T10:18:40;18.10;99.90
8820;DHT22;4446;50.876;4.736;2023-05-14T10:21:07;18.20;99.90
8820;DHT22;4446;50.876;4.736;2023-05-14T10:23:36;18.40;99.90
8820;DHT22;4446;50.876;4.736;2023-05-14T10:26:05;18.50;99.90
8820;DHT22;4446;50.876;4.736;2023-05-14T10:28:33;18.30;99.90
8820;DHT22;4446;50.876;4.736;2023-05-14T10:31:02;18.40;99.90
8820;DHT22;4446;50.876;4.736;2023-05-14T10:33:29;18.40;99.90
8820;DHT22;4446;50.876;4.736;2023-05-14T10:36:11;18.50;99.90
8820;DHT22;4446;50.876;4.736;2023-05-14T10:38:38;18.60;99.90
8820;DHT22;4446;50.876;4.736;2023-05-14T10:41:09;18.70;99.90
8820;DHT22;4446;50.876;4.736;2023-05-14T10:43:38;18.90;99.90
8820;DHT22;4446;50.876;4.736;2023-05-14T10:46:09;18.70;99.90
8820;DHT22;4446;50.876;4.736;2023-05-14T10:48:38;18.70;99.90
8820;DHT22;4446;50.876;4.736;2023-05-14T10:51:06;18.60;99.90
8820;DHT22;4446;50.876;4.736;2023-05-14T10:53:35;18.60;99.90
8820;DHT22;4446;50.876;4.736;2023-05-14T10:56:04;19.00;99.90
8820;DHT22;4446;50.876;4.736;2023-05-14T10:58:34;19.20;99.90
8820;DHT22;4446;50.876;4.736;2023-05-14T11:01:02;19.20;99.90
8820;DHT22;4446;50.876;4.736;2023-05-14T11:03:38;19.30;99.90
8820;DHT22;4446;50.876;4.736;2023-05-14T11:06:06;19.30;99.90
8820;DHT22;4446;50.876;4.736;2023-05-14T11:08:34;19.20;99.90
8820;DHT22;4446;50.876;4.736;2023-05-14T11:11:02;19.10;99.90
8820;DHT22;4446;50.876;4.736;2023-05-14T11:13:29;19.10;99.90
8820;DHT22;4446;50.876;4.736;2023-05-14T11:15:56;19.20;99.90
8820;DHT22;4446;50.876;4.736;2023-05-14T11:18:28;19.40;99.90
8820;DHT22;4446;50.876;4.736;2023-05-14T11:20:59;19.10;99.90
8820;DHT22;4446;50.876;4.736;2023-05-14T11:23:26;19.20;99.90
8820;DHT22;4446;50.876;4.736;2023-05-14T11:25:54;19.30;99.90
8820;DHT22;4446;50.876;4.736;2023-05-14T11:28:22;19.40;99.90
8820;DHT22;4446;50.876;4.736;2023-05-14T11:30:49;19.30;99.90
8820;DHT22;4446;50.876;4.736;2023-05-14T11:33:17;19.40;99.90
8820;DHT22;4446;50.876;4.736;2023-05-14T11:35:45;19.60;99.90
8820;DHT22;4446;50.876;4.736;2023-05-14T11:38:18;19.80;99.90
8820;DHT22;4446;50.876;4.736;2023-05-14T11:40:51;19.80;99.90
8820;DHT22;4446;50.876;4.736;2023-05-14T11:43:18;19.90;99.90
8820;DHT22;4446;50.876;4.736;2023-05-14T11:45:49;20.00;99.90
8820;DHT22;4446;50.876;4.736;2023-05-14T11:48:16;20.10;99.90
8820;DHT22;4446;50.876;4.736;2023-05-14T11:50:44;20.30;99.90
8820;DHT22;4446;50.876;4.736;2023-05-14T11:53:17;20.30;99.90
8820;DHT22;4446;50.876;4.736;2023-05-14T11:55:45;20.40;99.90
8820;DHT22;4446;50.876;4.736;2023-05-14T11:58:12;20.60;99.90
8820;DHT22;4446;50.876;4.736;2023-05-14T12:00:40;20.60;99.90
8820;DHT22;4446;50.876;4.736;2023-05-14T12:03:10;20.60;99.90
8820;DHT22;4446;50.876;4.736;2023-05-14T12:05:37;20.60;99.90
8820;DHT22;4446;50.876;4.736;2023-05-14T12:08:21;20.80;99.90
8820;DHT22;4446;50.876;4.736;2023-05-14T12:10:48;20.80;99.90
8820;DHT22;4446;50.876;4.736;2023-05-14T12:13:15;20.90;99.90
8820;DHT22;4446;50.876;4.736;2023-05-14T12:15:46;21.00;99.90
8820;DHT22;4446;50.876;4.736;2023-05-14T12:18:15;21.20;99.90
8820;DHT22;4446;50.876;4.736;2023-05-14T12:20:46;21.10;99.90
8820;DHT22;4446;50.876;4.736;2023-05-14T12:23:13;21.00;99.90
8820;DHT22;4446;50.876;4.736;2023-05-14T12:25:49;20.90;99.90
8820;DHT22;4446;50.876;4.736;2023-05-14T12:28:16;21.00;99.90
8820;DHT22;4446;50.876;4.736;2023-05-14T12:30:44;21.20;99.90
8820;DHT22;4446;50.876;4.736;2023-05-14T12:33:11;21.20;99.90
8820;DHT22;4446;50.876;4.736;2023-05-14T12:35:38;21.30;99.90
8820;DHT22;4446;50.876;4.736;2023-05-14T12:38:05;21.40;99.90
8820;DHT22;4446;50.876;4.736;2023-05-14T12:40:32;21.40;99.90
8820;DHT22;4446;50.876;4.736;2023-05-14T12:43:02;21.30;99.90
8820;DHT22;4446;50.876;4.736;2023-05-14T12:45:29;21.30;99.90
8820;DHT22;4446;50.876;4.736;2023-05-14T12:47:56;21.40;99.90
8820;DHT22;4446;50.876;4.736;2023-05-14T12:50:23;21.50;99.90
8820;DHT22;4446;50.876;4.736;2023-05-14T12:52:51;21.30;99.90
8820;DHT22;4446;50.876;4.736;2023-05-14T12:55:18;21.10;99.90
8820;DHT22;4446;50.876;4.736;2023-05-14T12:57:45;21.00;99.90
8820;DHT22;4446;50.876;4.736;2023-05-14T13:00:14;21.10;99.90
8820;DHT22;4446;50.876;4.736;2023-05-14T13:02:41;21.20;99.90
8820;DHT22;4446;50.876;4.736;2023-05-14T13:05:09;21.40;99.90
8820;DHT22;4446;50.876;4.736;2023-05-14T13:07:36;21.80;99.90
8820;DHT22;4446;50.876;4.736;2023-05-14T13:10:04;22.10;99.90
8820;DHT22;4446;50.876;4.736;2023-05-14T13:12:31;22.40;99.90
8820;DHT22;4446;50.876;4.736;2023-05-14T13:14:58;22.50;99.90
8820;DHT22;4446;50.876;4.736;2023-05-14T13:17:27;22.60;99.90
8820;DHT22;4446;50.876;4.736;2023-05-14T13:19:54;22.70;99.90
8820;DHT22;4446;50.876;4.736;2023-05-14T13:22:21;23.10;99.90
8820;DHT22;4446;50.876;4.736;2023-05-14T13:24:48;23.40;99.90
8820;DHT22;4446;50.876;4.736;2023-05-14T13:27:15;23.90;99.90
8820;DHT22;4446;50.876;4.736;2023-05-14T13:29:42;24.40;99.90
8820;DHT22;4446;50.876;4.736;2023-05-14T13:32:09;24.90;99.90
8820;DHT22;4446;50.876;4.736;2023-05-14T13:34:38;25.20;99.90
8820;DHT22;4446;50.876;4.736;2023-05-14T13:37:05;25.50;99.90
8820;DHT22;4446;50.876;4.736;2023-05-14T13:39:32;25.90;99.90
8820;DHT22;4446;50.876;4.736;2023-05-14T13:41:59;26.10;99.90
8820;DHT22;4446;50.876;4.736;2023-05-14T13:44:26;26.10;99.90
8820;DHT22;4446;50.876;4.736;2023-05-14T13:46:54;26.40;99.90
8820;DHT22;4446;50.876;4.736;2023-05-14T13:49:21;26.60;99.90
8820;DHT22;4446;50.876;4.736;2023-05-14T13:51:50;27.10;99.90
8820;DHT22;4446;50.876;4.736;2023-05-14T13:54:17;27.10;99.90
8820;DHT22;4446;50.876;4.736;2023-05-14T13:56:44;27.10;99.90
8820;DHT22;4446;50.876;4.736;2023-05-14T13:59:11;27.10;99.90
8820;DHT22;4446;50.876;4.736;2023-05-14T14:01:38;27.10;99.90
8820;DHT22;4446;50.876;4.736;2023-05-14T14:04:08;27.00;99.90
8820;DHT22;4446;50.876;4.736;2023-05-14T14:06:44;27.10;99.90
8820;DHT22;4446;50.876;4.736;2023-05-14T14:09:11;27.40;99.90
8820;DHT22;4446;50.876;4.736;2023-05-14T14:11:39;27.50;99.90
8820;DHT22;4446;50.876;4.736;2023-05-14T14:14:06;27.50;99.90
8820;DHT22;4446;50.876;4.736;2023-05-14T14:16:33;27.60;99.90
8820;DHT22;4446;50.876;4.736;2023-05-14T14:19:00;27.30;99.90
8820;DHT22;4446;50.876;4.736;2023-05-14T14:21:27;26.80;99.90
8820;DHT22;4446;50.876;4.736;2023-05-14T14:23:56;26.50;99.90
8820;DHT22;4446;50.876;4.736;2023-05-14T14:26:23;26.30;99.90
8820;DHT22;4446;50.876;4.736;2023-05-14T14:28:50;26.00;99.90
8820;DHT22;4446;50.876;4.736;2023-05-14T14:31:17;25.90;99.90
8820;DHT22;4446;50.876;4.736;2023-05-14T14:33:44;25.70;99.90
8820;DHT22;4446;50.876;4.736;2023-05-14T14:36:10;25.50;99.90
8820;DHT22;4446;50.876;4.736;2023-05-14T14:38:37;25.40;99.90
8820;DHT22;4446;50.876;4.736;2023-05-14T14:41:06;25.30;99.90
8820;DHT22;4446;50.876;4.736;2023-05-14T14:43:35;25.50;99.90
8820;DHT22;4446;50.876;4.736;2023-05-14T14:46:02;25.30;99.90
8820;DHT22;4446;50.876;4.736;2023-05-14T14:48:31;25.00;99.90
8820;DHT22;4446;50.876;4.736;2023-05-14T14:50:59;24.80;99.90
8820;DHT22;4446;50.876;4.736;2023-05-14T14:53:26;24.90;99.90
8820;DHT22;4446;50.876;4.736;2023-05-14T14:55:54;24.60;99.90
8820;DHT22;4446;50.876;4.736;2023-05-14T14:58:24;24.20;99.90
8820;DHT22;4446;50.876;4.736;2023-05-14T15:00:53;24.20;99.90
8820;DHT22;4446;50.876;4.736;2023-05-14T15:03:21;24.10;99.90
8820;DHT22;4446;50.876;4.736;2023-05-14T15:05:48;23.70;99.90
8820;DHT22;4446;50.876;4.736;2023-05-14T15:08:15;23.80;99.90
8820;DHT22;4446;50.876;4.736;2023-05-14T15:10:43;23.80;99.90
8820;DHT22;4446;50.876;4.736;2023-05-14T15:13:11;23.70;99.90
8820;DHT22;4446;50.876;4.736;2023-05-14T15:15:40;23.70;99.90
8820;DHT22;4446;50.876;4.736;2023-05-14T15:18:07;23.60;99.90
8820;DHT22;4446;50.876;4.736;2023-05-14T15:20:34;23.50;99.90
8820;DHT22;4446;50.876;4.736;2023-05-14T15:23:02;23.50;99.90
8820;DHT22;4446;50.876;4.736;2023-05-14T15:25:29;23.40;99.90
8820;DHT22;4446;50.876;4.736;2023-05-14T15:27:56;23.60;99.90
8820;DHT22;4446;50.876;4.736;2023-05-14T15:30:23;23.60;99.90
8820;DHT22;4446;50.876;4.736;2023-05-14T15:32:52;23.70;99.90
8820;DHT22;4446;50.876;4.736;2023-05-14T15:35:19;23.50;99.90
8820;DHT22;4446;50.876;4.736;2023-05-14T15:37:46;23.40;99.90
8820;DHT22;4446;50.876;4.736;2023-05-14T15:40:13;23.10;99.90
8820;DHT22;4446;50.876;4.736;2023-05-14T15:42:42;23.00;99.90
8820;DHT22;4446;50.876;4.736;2023-05-14T15:45:10;23.10;99.90
8820;DHT22;4446;50.876;4.736;2023-05-14T15:47:38;23.20;99.90
8820;DHT22;4446;50.876;4.736;2023-05-14T15:50:08;22.80;99.90
8820;DHT22;4446;50.876;4.736;2023-05-14T15:52:35;22.30;99.90
8820;DHT22;4446;50.876;4.736;2023-05-14T15:55:05;22.10;99.90
8820;DHT22;4446;50.876;4.736;2023-05-14T15:57:32;21.90;99.90
8820;DHT22;4446;50.876;4.736;2023-05-14T15:59:59;21.60;99.90
8820;DHT22;4446;50.876;4.736;2023-05-14T16:02:26;21.60;99.90
8820;DHT22;4446;50.876;4.736;2023-05-14T16:04:55;21.70;99.90